sensor_id;sensor_type;location;lat;lon;timestamp;temperature;humidity
38848;DHT22;24602;44.780;20.408;2022-09-09T00:04:35;24.40;99.90
38848;DHT22;24602;44.780;20.408;2022-09-09T00:07:44;24.40;99.90
38848;DHT22;24602;44.780;20.408;2022-09-09T00:10:37;24.40;99.90
38848;DHT22;24602;44.780;20.408;2022-09-09T00:13:37;24.50;99.90
38848;DHT22;24602;44.780;20.408;2022-09-09T00:16:24;24.50;99.90
38848;DHT22;24602;44.780;20.408;2022-09-09T00:25:14;24.40;99.90
38848;DHT22;24602;44.780;20.408;2022-09-09T00:27:49;24.40;99.90
38848;DHT22;24602;44.780;20.408;2022-09-09T00:30:31;24.40;99.90
38848;DHT22;24602;44.780;20.408;2022-09-09T00:33:12;24.30;99.90
38848;DHT22;24602;44.780;20.408;2022-09-09T00:35:57;24.20;99.90
38848;DHT22;24602;44.780;20.408;2022-09-09T00:38:42;24.20;99.90
38848;DHT22;24602;44.780;20.408;2022-09-09T00:44:31;24.20;99.90
38848;DHT22;24602;44.780;20.408;2022-09-09T00:50:35;24.20;99.90
38848;DHT22;24602;44.780;20.408;2022-09-09T00:56:16;24.10;99.90
38848;DHT22;24602;44.780;20.408;2022-09-09T01:01:45;23.90;99.90
38848;DHT22;24602;44.780;20.408;2022-09-09T01:04:24;23.90;99.90
38848;DHT22;24602;44.780;20.408;2022-09-09T01:07:09;23.90;99.90
38848;DHT22;24602;44.780;20.408;2022-09-09T01:13:04;23.80;99.90
38848;DHT22;24602;44.780;20.408;2022-09-09T01:15:30;23.70;99.90
38848;DHT22;24602;44.780;20.408;2022-09-09T01:18:05;23.70;99.90
38848;DHT22;24602;44.780;20.408;2022-09-09T01:24:38;23.70;99.90
38848;DHT22;24602;44.780;20.408;2022-09-09T01:27:23;23.70;99.90
38848;DHT22;24602;44.780;20.408;2022-09-09T01:29:57;23.70;99.90
38848;DHT22;24602;44.780;20.408;2022-09-09T01:32:43;23.70;99.90
38848;DHT22;24602;44.780;20.408;2022-09-09T01:36:00;23.80;99.90
38848;DHT22;24602;44.780;20.408;2022-09-09T01:38:36;23.80;99.90
38848;DHT22;24602;44.780;20.408;2022-09-09T01:41:05;23.80;99.90
38848;DHT22;24602;44.780;20.408;2022-09-09T01:43:43;23.80;99.90
38848;DHT22;24602;44.780;20.408;2022-09-09T01:46:14;23.80;99.90
38848;DHT22;24602;44.780;20.408;2022-09-09T01:48:46;23.80;99.90
38848;DHT22;24602;44.780;20.408;2022-09-09T01:51:17;23.80;99.90
38848;DHT22;24602;44.780;20.408;2022-09-09T01:53:48;23.90;99.90
38848;DHT22;24602;44.780;20.408;2022-09-09T02:08:45;23.70;99.90
38848;DHT22;24602;44.780;20.408;2022-09-09T02:11:27;23.70;99.90
38848;DHT22;24602;44.780;20.408;2022-09-09T02:14:19;23.70;99.90
38848;DHT22;24602;44.780;20.408;2022-09-09T02:17:09;23.70;99.90
38848;DHT22;24602;44.780;20.408;2022-09-09T02:20:12;23.60;99.90
38848;DHT22;24602;44.780;20.408;2022-09-09T02:23:05;23.60;99.90
38848;DHT22;24602;44.780;20.408;2022-09-09T02:25:43;23.60;99.90
38848;DHT22;24602;44.780;20.408;2022-09-09T02:28:23;23.70;99.90
38848;DHT22;24602;44.780;20.408;2022-09-09T02:30:54;23.70;99.90
38848;DHT22;24602;44.780;20.408;2022-09-09T02:33:38;23.70;99.90
38848;DHT22;24602;44.780;20.408;2022-09-09T02:36:11;23.70;99.90
38848;DHT22;24602;44.780;20.408;2022-09-09T02:38:51;23.80;99.90
38848;DHT22;24602;44.780;20.408;2022-09-09T02:41:41;23.90;99.90
38848;DHT22;24602;44.780;20.408;2022-09-09T02:44:18;23.90;99.90
38848;DHT22;24602;44.780;20.408;2022-09-09T02:56:19;24.10;99.90
38848;DHT22;24602;44.780;20.408;2022-09-09T02:59:03;24.10;99.90
38848;DHT22;24602;44.780;20.408;2022-09-09T03:01:34;24.00;99.90
38848;DHT22;24602;44.780;20.408;2022-09-09T03:04:07;23.90;99.90
38848;DHT22;24602;44.780;20.408;2022-09-09T03:06:41;23.90;99.90
38848;DHT22;24602;44.780;20.408;2022-09-09T03:09:20;23.90;99.90
38848;DHT22;24602;44.780;20.408;2022-09-09T03:11:50;23.80;99.90
38848;DHT22;24602;44.780;20.408;2022-09-09T03:14:24;23.70;99.90
38848;DHT22;24602;44.780;20.408;2022-09-09T03:16:55;23.60;99.90
38848;DHT22;24602;44.780;20.408;2022-09-09T03:19:30;23.50;99.90
38848;DHT22;24602;44.780;20.408;2022-09-09T03:22:00;23.50;99.90
38848;DHT22;24602;44.780;20.408;2022-09-09T03:24:34;23.50;99.90
38848;DHT22;24602;44.780;20.408;2022-09-09T03:27:06;23.40;99.90
38848;DHT22;24602;44.780;20.408;2022-09-09T03:29:40;23.40;99.90
38848;DHT22;24602;44.780;20.408;2022-09-09T03:32:16;23.50;99.90
38848;DHT22;24602;44.780;20.408;2022-09-09T03:34:49;23.40;99.90
38848;DHT22;24602;44.780;20.408;2022-09-09T03:37:20;23.50;99.90
38848;DHT22;24602;44.780;20.408;2022-09-09T03:39:53;23.30;99.90
38848;DHT22;24602;44.780;20.408;2022-09-09T03:42:29;23.20;99.90
38848;DHT22;24602;44.780;20.408;2022-09-09T03:45:09;23.20;99.90
38848;DHT22;24602;44.780;20.408;2022-09-09T03:47:43;23.10;99.90
38848;DHT22;24602;44.780;20.408;2022-09-09T03:50:15;22.90;99.90
38848;DHT22;24602;44.780;20.408;2022-09-09T03:52:48;22.90;99.90
38848;DHT22;24602;44.780;20.408;2022-09-09T03:55:21;22.90;99.90
38848;DHT22;24602;44.780;20.408;2022-09-09T03:57:51;22.80;99.90
38848;DHT22;24602;44.780;20.408;2022-09-09T04:00:19;22.60;99.90
38848;DHT22;24602;44.780;20.408;2022-09-09T04:02:53;22.50;99.90
38848;DHT22;24602;44.780;20.408;2022-09-09T04:05:25;22.30;99.90
38848;DHT22;24602;44.780;20.408;2022-09-09T04:07:56;22.10;99.90
38848;DHT22;24602;44.780;20.408;2022-09-09T04:10:26;21.90;99.90
38848;DHT22;24602;44.780;20.408;2022-09-09T04:12:57;21.70;99.90
38848;DHT22;24602;44.780;20.408;2022-09-09T04:15:28;21.60;99.90
38848;DHT22;24602;44.780;20.408;2022-09-09T04:18:01;21.50;99.90
38848;DHT22;24602;44.780;20.408;2022-09-09T04:20:35;21.40;99.90
38848;DHT22;24602;44.780;20.408;2022-09-09T04:23:05;21.40;99.90
38848;DHT22;24602;44.780;20.408;2022-09-09T04:25:36;21.40;99.90
38848;DHT22;24602;44.780;20.408;2022-09-09T04:28:06;21.30;99.90
38848;DHT22;24602;44.780;20.408;2022-09-09T04:30:41;21.30;99.90
38848;DHT22;24602;44.780;20.408;2022-09-09T04:33:14;21.30;99.90
38848;DHT22;24602;44.780;20.408;2022-09-09T04:35:48;21.20;99.90
38848;DHT22;24602;44.780;20.408;2022-09-09T04:38:19;21.10;99.90
38848;DHT22;24602;44.780;20.408;2022-09-09T04:40:50;21.20;99.90
38848;DHT22;24602;44.780;20.408;2022-09-09T04:43:21;21.30;99.90
38848;DHT22;24602;44.780;20.408;2022-09-09T04:45:54;21.40;99.90
38848;DHT22;24602;44.780;20.408;2022-09-09T04:48:25;21.50;99.90
38848;DHT22;24602;44.780;20.408;2022-09-09T04:50:55;21.60;99.90
38848;DHT22;24602;44.780;20.408;2022-09-09T04:53:25;21.70;99.90
38848;DHT22;24602;44.780;20.408;2022-09-09T04:56:15;21.70;99.90
38848;DHT22;24602;44.780;20.408;2022-09-09T04:58:52;21.70;99.90
38848;DHT22;24602;44.780;20.408;2022-09-09T05:01:34;21.80;99.90
38848;DHT22;24602;44.780;20.408;2022-09-09T05:04:05;21.80;99.90
38848;DHT22;24602;44.780;20.408;2022-09-09T05:06:36;21.80;99.90
38848;DHT22;24602;44.780;20.408;2022-09-09T05:09:08;21.70;99.90
38848;DHT22;24602;44.780;20.408;2022-09-09T05:11:44;21.80;99.90
38848;DHT22;24602;44.780;20.408;2022-09-09T05:14:25;21.90;99.90
38848;DHT22;24602;44.780;20.408;2022-09-09T05:16:56;22.00;99.90
38848;DHT22;24602;44.780;20.408;2022-09-09T05:19:25;22.10;99.90
38848;DHT22;24602;44.780;20.408;2022-09-09T05:21:53;22.10;99.90
38848;DHT22;24602;44.780;20.408;2022-09-09T05:24:30;22.00;99.90
38848;DHT22;24602;44.780;20.408;2022-09-09T05:27:04;21.90;99.90
38848;DHT22;24602;44.780;20.408;2022-09-09T05:29:40;21.80;99.90
38848;DHT22;24602;44.780;20.408;2022-09-09T05:32:14;21.90;99.90
38848;DHT22;24602;44.780;20.408;2022-09-09T05:34:50;22.00;99.90
38848;DHT22;24602;44.780;20.408;2022-09-09T05:37:19;22.00;99.90
38848;DHT22;24602;44.780;20.408;2022-09-09T05:39:47;22.10;99.90
38848;DHT22;24602;44.780;20.408;2022-09-09T05:42:18;22.10;99.90
38848;DHT22;24602;44.780;20.408;2022-09-09T05:44:48;22.20;99.90
38848;DHT22;24602;44.780;20.408;2022-09-09T05:47:18;22.40;99.90
38848;DHT22;24602;44.780;20.408;2022-09-09T05:49:48;22.50;99.90
38848;DHT22;24602;44.780;20.408;2022-09-09T05:52:19;22.60;99.90
38848;DHT22;24602;44.780;20.408;2022-09-09T05:54:51;22.70;99.90
38848;DHT22;24602;44.780;20.408;2022-09-09T05:57:20;22.80;99.90
38848;DHT22;24602;44.780;20.408;2022-09-09T05:59:51;22.80;99.90
38848;DHT22;24602;44.780;20.408;2022-09-09T06:02:20;22.80;99.90
38848;DHT22;24602;44.780;20.408;2022-09-09T06:04:53;22.90;99.90
38848;DHT22;24602;44.780;20.408;2022-09-09T06:07:29;23.00;99.90
38848;DHT22;24602;44.780;20.408;2022-09-09T06:09:57;23.00;99.90
38848;DHT22;24602;44.780;20.408;2022-09-09T06:12:32;23.10;99.90
38848;DHT22;24602;44.780;20.408;2022-09-09T06:15:03;23.10;99.90
38848;DHT22;24602;44.780;20.408;2022-09-09T06:17:35;23.10;99.90
38848;DHT22;24602;44.780;20.408;2022-09-09T06:20:05;23.20;99.90
38848;DHT22;24602;44.780;20.408;2022-09-09T06:22:39;23.30;99.90
38848;DHT22;24602;44.780;20.408;2022-09-09T06:25:09;23.40;99.90
38848;DHT22;24602;44.780;20.408;2022-09-09T06:27:42;23.50;99.90
38848;DHT22;24602;44.780;20.408;2022-09-09T06:30:11;23.50;99.90
38848;DHT22;24602;44.780;20.408;2022-09-09T06:32:42;23.50;99.90
38848;DHT22;24602;44.780;20.408;2022-09-09T06:35:12;23.50;99.90
38848;DHT22;24602;44.780;20.408;2022-09-09T06:37:48;23.40;99.90
38848;DHT22;24602;44.780;20.408;2022-09-09T06:40:21;23.40;99.90
38848;DHT22;24602;44.780;20.408;2022-09-09T06:42:48;23.30;99.90
38848;DHT22;24602;44.780;20.408;2022-09-09T06:45:38;23.30;99.90
38848;DHT22;24602;44.780;20.408;2022-09-09T06:48:09;23.00;99.90
38848;DHT22;24602;44.780;20.408;2022-09-09T06:50:42;22.70;99.90
38848;DHT22;24602;44.780;20.408;2022-09-09T06:53:12;22.50;99.90
38848;DHT22;24602;44.780;20.408;2022-09-09T06:55:41;22.40;99.90
38848;DHT22;24602;44.780;20.408;2022-09-09T06:58:12;22.30;99.90
38848;DHT22;24602;44.780;20.408;2022-09-09T07:00:41;22.20;99.90
38848;DHT22;24602;44.780;20.408;2022-09-09T07:03:12;22.10;99.90
38848;DHT22;24602;44.780;20.408;2022-09-09T07:05:53;22.10;99.90
38848;DHT22;24602;44.780;20.408;2022-09-09T07:08:25;22.10;99.90
38848;DHT22;24602;44.780;20.408;2022-09-09T07:11:03;22.10;99.90
38848;DHT22;24602;44.780;20.408;2022-09-09T07:13:40;22.10;99.90
38848;DHT22;24602;44.780;20.408;2022-09-09T07:16:20;22.10;99.90
38848;DHT22;24602;44.780;20.408;2022-09-09T07:18:54;22.10;99.90
38848;DHT22;24602;44.780;20.408;2022-09-09T07:21:26;22.00;99.90
38848;DHT22;24602;44.780;20.408;2022-09-09T07:23:57;22.00;99.90
38848;DHT22;24602;44.780;20.408;2022-09-09T07:26:28;22.10;99.90
38848;DHT22;24602;44.780;20.408;2022-09-09T07:28:59;22.10;99.90
38848;DHT22;24602;44.780;20.408;2022-09-09T07:31:31;22.10;99.90
38848;DHT22;24602;44.780;20.408;2022-09-09T07:34:09;22.10;99.90
38848;DHT22;24602;44.780;20.408;2022-09-09T07:36:38;22.20;99.90
38848;DHT22;24602;44.780;20.408;2022-09-09T07:39:11;22.10;99.90
38848;DHT22;24602;44.780;20.408;2022-09-09T07:41:47;22.10;99.90
38848;DHT22;24602;44.780;20.408;2022-09-09T07:44:20;22.00;99.90
38848;DHT22;24602;44.780;20.408;2022-09-09T07:47:07;22.00;99.90
38848;DHT22;24602;44.780;20.408;2022-09-09T07:49:42;22.00;99.90
38848;DHT22;24602;44.780;20.408;2022-09-09T07:52:13;22.00;99.90
38848;DHT22;24602;44.780;20.408;2022-09-09T07:54:52;22.00;99.90
38848;DHT22;24602;44.780;20.408;2022-09-09T07:57:20;22.10;99.90
38848;DHT22;24602;44.780;20.408;2022-09-09T07:59:56;22.20;99.90
38848;DHT22;24602;44.780;20.408;2022-09-09T08:02:49;22.30;99.90
38848;DHT22;24602;44.780;20.408;2022-09-09T08:05:20;22.20;99.90
38848;DHT22;24602;44.780;20.408;2022-09-09T08:07:50;22.20;99.90
38848;DHT22;24602;44.780;20.408;2022-09-09T08:10:22;22.30;99.90
38848;DHT22;24602;44.780;20.408;2022-09-09T08:12:53;22.30;99.90
38848;DHT22;24602;44.780;20.408;2022-09-09T08:15:46;22.30;99.90
38848;DHT22;24602;44.780;20.408;2022-09-09T08:18:14;22.40;99.90
38848;DHT22;24602;44.780;20.408;2022-09-09T08:20:46;22.50;99.90
38848;DHT22;24602;44.780;20.408;2022-09-09T08:23:14;22.50;99.90
38848;DHT22;24602;44.780;20.408;2022-09-09T08:25:45;22.50;99.90
38848;DHT22;24602;44.780;20.408;2022-09-09T08:28:16;22.50;99.90
38848;DHT22;24602;44.780;20.408;2022-09-09T08:30:46;22.60;99.90
38848;DHT22;24602;44.780;20.408;2022-09-09T08:33:18;22.70;99.90
38848;DHT22;24602;44.780;20.408;2022-09-09T08:35:51;22.80;99.90
38848;DHT22;24602;44.780;20.408;2022-09-09T08:38:24;22.90;99.90
38848;DHT22;24602;44.780;20.408;2022-09-09T08:44:06;23.10;99.90
38848;DHT22;24602;44.780;20.408;2022-09-09T08:46:44;23.30;99.90
38848;DHT22;24602;44.780;20.408;2022-09-09T08:52:37;23.50;99.90
38848;DHT22;24602;44.780;20.408;2022-09-09T08:57:58;23.80;99.90
38848;DHT22;24602;44.780;20.408;2022-09-09T09:01:09;23.90;99.90
38848;DHT22;24602;44.780;20.408;2022-09-09T09:07:13;24.20;99.90
38848;DHT22;24602;44.780;20.408;2022-09-09T09:13:39;24.40;99.90
38848;DHT22;24602;44.780;20.408;2022-09-09T09:19:35;24.80;99.90
38848;DHT22;24602;44.780;20.408;2022-09-09T09:22:33;24.60;99.90
38848;DHT22;24602;44.780;20.408;2022-09-09T09:25:17;24.60;99.90
38848;DHT22;24602;44.780;20.408;2022-09-09T09:28:15;24.70;99.90
38848;DHT22;24602;44.780;20.408;2022-09-09T09:31:03;24.90;99.90
38848;DHT22;24602;44.780;20.408;2022-09-09T09:33:53;24.80;99.90
38848;DHT22;24602;44.780;20.408;2022-09-09T09:36:40;24.90;99.90
38848;DHT22;24602;44.780;20.408;2022-09-09T09:39:32;24.80;99.90
38848;DHT22;24602;44.780;20.408;2022-09-09T09:42:30;24.70;99.90
38848;DHT22;24602;44.780;20.408;2022-09-09T09:48:10;24.70;99.90
38848;DHT22;24602;44.780;20.408;2022-09-09T09:53:39;24.50;99.90
38848;DHT22;24602;44.780;20.408;2022-09-09T09:56:14;24.30;99.90
38848;DHT22;24602;44.780;20.408;2022-09-09T09:58:51;24.30;99.90
38848;DHT22;24602;44.780;20.408;2022-09-09T10:01:32;24.40;99.90
38848;DHT22;24602;44.780;20.408;2022-09-09T10:04:22;24.40;99.90
38848;DHT22;24602;44.780;20.408;2022-09-09T10:06:56;24.40;99.90
38848;DHT22;24602;44.780;20.408;2022-09-09T10:09:30;24.40;99.90
38848;DHT22;24602;44.780;20.408;2022-09-09T10:21:20;24.70;99.90
38848;DHT22;24602;44.780;20.408;2022-09-09T10:27:22;24.70;99.90
38848;DHT22;24602;44.780;20.408;2022-09-09T10:33:21;24.60;99.90
38848;DHT22;24602;44.780;20.408;2022-09-09T10:36:25;24.70;99.90
38848;DHT22;24602;44.780;20.408;2022-09-09T10:42:14;24.80;99.90
38848;DHT22;24602;44.780;20.408;2022-09-09T10:53:53;24.90;99.90
38848;DHT22;24602;44.780;20.408;2022-09-09T10:56:28;24.90;99.90
38848;DHT22;24602;44.780;20.408;2022-09-09T10:59:30;25.00;99.90
38848;DHT22;24602;44.780;20.408;2022-09-09T11:02:28;25.10;99.90
38848;DHT22;24602;44.780;20.408;2022-09-09T11:05:03;25.10;99.90
38848;DHT22;24602;44.780;20.408;2022-09-09T11:07:59;25.10;99.90
38848;DHT22;24602;44.780;20.408;2022-09-09T11:16:53;25.30;99.90
38848;DHT22;24602;44.780;20.408;2022-09-09T11:19:42;25.30;99.90
38848;DHT22;24602;44.780;20.408;2022-09-09T11:22:36;25.40;99.90
38848;DHT22;24602;44.780;20.408;2022-09-09T11:34:17;25.50;99.90
38848;DHT22;24602;44.780;20.408;2022-09-09T11:40:23;25.70;99.90
38848;DHT22;24602;44.780;20.408;2022-09-09T11:43:05;26.00;99.90
38848;DHT22;24602;44.780;20.408;2022-09-09T11:45:40;26.10;99.90
38848;DHT22;24602;44.780;20.408;2022-09-09T11:54:28;26.30;99.90
38848;DHT22;24602;44.780;20.408;2022-09-09T11:56:51;26.50;99.90
38848;DHT22;24602;44.780;20.408;2022-09-09T11:59:29;26.60;99.90
38848;DHT22;24602;44.780;20.408;2022-09-09T12:02:26;26.70;99.90
38848;DHT22;24602;44.780;20.408;2022-09-09T12:05:11;26.60;99.90
38848;DHT22;24602;44.780;20.408;2022-09-09T12:07:58;26.80;99.90
38848;DHT22;24602;44.780;20.408;2022-09-09T12:10:38;26.90;99.90
38848;DHT22;24602;44.780;20.408;2022-09-09T12:13:20;27.20;99.90
38848;DHT22;24602;44.780;20.408;2022-09-09T12:15:53;27.30;99.90
38848;DHT22;24602;44.780;20.408;2022-09-09T12:18:25;27.40;99.90
38848;DHT22;24602;44.780;20.408;2022-09-09T12:21:44;27.70;99.90
38848;DHT22;24602;44.780;20.408;2022-09-09T12:24:58;27.90;99.90
38848;DHT22;24602;44.780;20.408;2022-09-09T12:27:43;28.20;99.90
38848;DHT22;24602;44.780;20.408;2022-09-09T12:30:22;28.40;99.90
38848;DHT22;24602;44.780;20.408;2022-09-09T12:33:11;28.40;99.90
38848;DHT22;24602;44.780;20.408;2022-09-09T12:35:54;28.40;99.90
38848;DHT22;24602;44.780;20.408;2022-09-09T12:38:39;28.70;99.90
38848;DHT22;24602;44.780;20.408;2022-09-09T12:41:27;28.80;99.90
38848;DHT22;24602;44.780;20.408;2022-09-09T12:44:20;28.90;99.90
38848;DHT22;24602;44.780;20.408;2022-09-09T12:46:51;28.80;99.90
38848;DHT22;24602;44.780;20.408;2022-09-09T12:49:38;28.80;99.90
38848;DHT22;24602;44.780;20.408;2022-09-09T12:52:25;28.70;99.90
38848;DHT22;24602;44.780;20.408;2022-09-09T12:54:59;28.70;99.90
38848;DHT22;24602;44.780;20.408;2022-09-09T12:57:36;28.90;99.90
38848;DHT22;24602;44.780;20.408;2022-09-09T13:00:27;28.80;99.90
38848;DHT22;24602;44.780;20.408;2022-09-09T13:02:59;28.80;99.90
38848;DHT22;24602;44.780;20.408;2022-09-09T13:05:35;30.30;99.30
38848;DHT22;24602;44.780;20.408;2022-09-09T13:11:16;35.60;90.40
38848;DHT22;24602;44.780;20.408;2022-09-09T13:13:52;38.50;74.20
38848;DHT22;24602;44.780;20.408;2022-09-09T13:16:33;40.50;61.70
38848;DHT22;24602;44.780;20.408;2022-09-09T13:19:16;41.60;56.50
38848;DHT22;24602;44.780;20.408;2022-09-09T13:21:46;41.50;53.30
38848;DHT22;24602;44.780;20.408;2022-09-09T13:24:33;39.40;55.90
38848;DHT22;24602;44.780;20.408;2022-09-09T13:27:29;37.20;60.40
38848;DHT22;24602;44.780;20.408;2022-09-09T13:29:57;36.90;62.70
38848;DHT22;24602;44.780;20.408;2022-09-09T13:32:30;39.10;59.30
38848;DHT22;24602;44.780;20.408;2022-09-09T13:35:30;41.00;55.90
38848;DHT22;24602;44.780;20.408;2022-09-09T13:38:08;41.90;53.00
38848;DHT22;24602;44.780;20.408;2022-09-09T13:41:08;42.30;51.20
38848;DHT22;24602;44.780;20.408;2022-09-09T13:43:46;43.30;49.00
38848;DHT22;24602;44.780;20.408;2022-09-09T13:46:38;43.80;48.00
38848;DHT22;24602;44.780;20.408;2022-09-09T13:49:22;41.70;48.10
38848;DHT22;24602;44.780;20.408;2022-09-09T13:52:04;39.70;51.50
38848;DHT22;24602;44.780;20.408;2022-09-09T13:54:36;40.10;52.40
38848;DHT22;24602;44.780;20.408;2022-09-09T13:57:13;42.00;50.20
38848;DHT22;24602;44.780;20.408;2022-09-09T13:59:53;43.40;47.40
38848;DHT22;24602;44.780;20.408;2022-09-09T14:02:37;44.60;45.70
38848;DHT22;24602;44.780;20.408;2022-09-09T14:05:16;45.60;45.00
38848;DHT22;24602;44.780;20.408;2022-09-09T14:07:49;44.00;44.30
38848;DHT22;24602;44.780;20.408;2022-09-09T14:10:22;44.10;44.10
38848;DHT22;24602;44.780;20.408;2022-09-09T14:12:53;44.30;44.10
38848;DHT22;24602;44.780;20.408;2022-09-09T14:15:22;44.00;42.90
38848;DHT22;24602;44.780;20.408;2022-09-09T14:17:50;43.50;44.30
38848;DHT22;24602;44.780;20.408;2022-09-09T14:20:20;44.00;44.80
38848;DHT22;24602;44.780;20.408;2022-09-09T14:22:48;43.00;43.70
38848;DHT22;24602;44.780;20.408;2022-09-09T14:25:16;43.00;45.50
38848;DHT22;24602;44.780;20.408;2022-09-09T14:27:47;41.80;45.60
38848;DHT22;24602;44.780;20.408;2022-09-09T14:30:17;41.60;47.30
38848;DHT22;24602;44.780;20.408;2022-09-09T14:32:50;42.00;47.20
38848;DHT22;24602;44.780;20.408;2022-09-09T14:35:20;42.40;46.80
38848;DHT22;24602;44.780;20.408;2022-09-09T14:37:49;42.90;45.70
38848;DHT22;24602;44.780;20.408;2022-09-09T14:40:26;42.90;45.20
38848;DHT22;24602;44.780;20.408;2022-09-09T14:42:57;42.50;44.50
38848;DHT22;24602;44.780;20.408;2022-09-09T14:45:27;42.20;44.20
38848;DHT22;24602;44.780;20.408;2022-09-09T14:48:18;42.40;44.90
38848;DHT22;24602;44.780;20.408;2022-09-09T14:50:50;42.60;45.00
38848;DHT22;24602;44.780;20.408;2022-09-09T14:53:22;42.80;44.60
38848;DHT22;24602;44.780;20.408;2022-09-09T14:58:38;42.80;44.10
38848;DHT22;24602;44.780;20.408;2022-09-09T15:01:10;42.40;44.60
38848;DHT22;24602;44.780;20.408;2022-09-09T15:03:48;41.80;45.80
38848;DHT22;24602;44.780;20.408;2022-09-09T15:06:16;41.60;45.90
38848;DHT22;24602;44.780;20.408;2022-09-09T15:08:49;41.60;45.90
38848;DHT22;24602;44.780;20.408;2022-09-09T15:11:21;41.70;45.00
38848;DHT22;24602;44.780;20.408;2022-09-09T15:13:54;41.80;45.10
38848;DHT22;24602;44.780;20.408;2022-09-09T15:16:26;42.10;44.70
38848;DHT22;24602;44.780;20.408;2022-09-09T15:18:57;41.90;45.20
38848;DHT22;24602;44.780;20.408;2022-09-09T15:21:28;41.40;45.60
38848;DHT22;24602;44.780;20.408;2022-09-09T15:23:57;40.60;46.40
38848;DHT22;24602;44.780;20.408;2022-09-09T15:26:31;39.70;47.60
38848;DHT22;24602;44.780;20.408;2022-09-09T15:29:02;38.50;49.10
38848;DHT22;24602;44.780;20.408;2022-09-09T15:31:33;37.50;50.20
38848;DHT22;24602;44.780;20.408;2022-09-09T15:34:03;36.80;51.50
38848;DHT22;24602;44.780;20.408;2022-09-09T15:36:36;36.30;52.20
38848;DHT22;24602;44.780;20.408;2022-09-09T15:39:16;35.90;53.10
38848;DHT22;24602;44.780;20.408;2022-09-09T15:41:50;35.60;53.60
38848;DHT22;24602;44.780;20.408;2022-09-09T15:44:22;35.30;54.20
38848;DHT22;24602;44.780;20.408;2022-09-09T15:46:54;35.20;54.50
38848;DHT22;24602;44.780;20.408;2022-09-09T15:49:27;35.00;55.20
38848;DHT22;24602;44.780;20.408;2022-09-09T15:51:58;34.60;55.80
38848;DHT22;24602;44.780;20.408;2022-09-09T15:54:39;34.50;56.00
38848;DHT22;24602;44.780;20.408;2022-09-09T15:57:13;34.30;56.20
38848;DHT22;24602;44.780;20.408;2022-09-09T15:59:44;34.00;56.90
38848;DHT22;24602;44.780;20.408;2022-09-09T16:02:15;33.80;57.60
38848;DHT22;24602;44.780;20.408;2022-09-09T16:04:46;33.60;58.00
38848;DHT22;24602;44.780;20.408;2022-09-09T16:07:17;33.40;58.10
38848;DHT22;24602;44.780;20.408;2022-09-09T16:09:49;33.40;58.50
38848;DHT22;24602;44.780;20.408;2022-09-09T16:12:35;33.20;58.60
38848;DHT22;24602;44.780;20.408;2022-09-09T16:15:09;33.10;59.20
38848;DHT22;24602;44.780;20.408;2022-09-09T16:17:39;32.90;59.40
38848;DHT22;24602;44.780;20.408;2022-09-09T16:20:14;32.60;59.50
38848;DHT22;24602;44.780;20.408;2022-09-09T16:22:42;32.30;60.40
38848;DHT22;24602;44.780;20.408;2022-09-09T16:25:16;31.80;60.90
38848;DHT22;24602;44.780;20.408;2022-09-09T16:27:43;31.30;62.40
38848;DHT22;24602;44.780;20.408;2022-09-09T16:30:14;30.90;63.60
38848;DHT22;24602;44.780;20.408;2022-09-09T16:32:43;30.60;64.40
38848;DHT22;24602;44.780;20.408;2022-09-09T16:35:14;30.30;65.50
38848;DHT22;24602;44.780;20.408;2022-09-09T16:37:46;30.10;67.00
38848;DHT22;24602;44.780;20.408;2022-09-09T16:40:15;29.90;67.00
38848;DHT22;24602;44.780;20.408;2022-09-09T16:42:48;29.70;68.00
38848;DHT22;24602;44.780;20.408;2022-09-09T16:45:17;29.60;68.90
38848;DHT22;24602;44.780;20.408;2022-09-09T16:47:48;29.40;69.60
38848;DHT22;24602;44.780;20.408;2022-09-09T16:50:20;29.30;70.40
38848;DHT22;24602;44.780;20.408;2022-09-09T16:52:55;29.20;71.10
38848;DHT22;24602;44.780;20.408;2022-09-09T16:55:24;29.10;71.60
38848;DHT22;24602;44.780;20.408;2022-09-09T16:57:56;29.00;72.30
38848;DHT22;24602;44.780;20.408;2022-09-09T17:00:26;28.90;73.00
38848;DHT22;24602;44.780;20.408;2022-09-09T17:03:01;28.80;73.70
38848;DHT22;24602;44.780;20.408;2022-09-09T17:05:31;28.70;74.70
38848;DHT22;24602;44.780;20.408;2022-09-09T17:08:01;28.70;75.80
38848;DHT22;24602;44.780;20.408;2022-09-09T17:10:33;28.60;76.70
38848;DHT22;24602;44.780;20.408;2022-09-09T17:13:04;28.50;77.50
38848;DHT22;24602;44.780;20.408;2022-09-09T17:15:32;28.40;78.90
38848;DHT22;24602;44.780;20.408;2022-09-09T17:18:02;28.30;80.30
38848;DHT22;24602;44.780;20.408;2022-09-09T17:20:36;28.30;81.60
38848;DHT22;24602;44.780;20.408;2022-09-09T17:23:18;28.20;82.90
38848;DHT22;24602;44.780;20.408;2022-09-09T17:26:03;28.10;84.40
38848;DHT22;24602;44.780;20.408;2022-09-09T17:28:35;28.10;85.90
38848;DHT22;24602;44.780;20.408;2022-09-09T17:31:09;28.00;87.30
38848;DHT22;24602;44.780;20.408;2022-09-09T17:33:49;28.00;88.90
38848;DHT22;24602;44.780;20.408;2022-09-09T17:36:32;27.90;90.40
38848;DHT22;24602;44.780;20.408;2022-09-09T17:39:02;27.90;90.90
38848;DHT22;24602;44.780;20.408;2022-09-09T17:41:36;27.90;91.50
38848;DHT22;24602;44.780;20.408;2022-09-09T17:44:07;27.80;92.30
38848;DHT22;24602;44.780;20.408;2022-09-09T17:46:42;27.80;92.90
38848;DHT22;24602;44.780;20.408;2022-09-09T17:49:16;27.70;93.60
38848;DHT22;24602;44.780;20.408;2022-09-09T17:51:52;27.80;94.70
38848;DHT22;24602;44.780;20.408;2022-09-09T17:54:29;27.70;94.90
38848;DHT22;24602;44.780;20.408;2022-09-09T17:56:57;27.60;95.30
38848;DHT22;24602;44.780;20.408;2022-09-09T17:59:30;27.60;95.90
38848;DHT22;24602;44.780;20.408;2022-09-09T18:02:01;27.60;96.10
38848;DHT22;24602;44.780;20.408;2022-09-09T18:04:30;27.60;96.50
38848;DHT22;24602;44.780;20.408;2022-09-09T18:07:02;27.50;96.80
38848;DHT22;24602;44.780;20.408;2022-09-09T18:09:40;27.50;97.20
38848;DHT22;24602;44.780;20.408;2022-09-09T18:12:12;27.50;97.60
38848;DHT22;24602;44.780;20.408;2022-09-09T18:14:50;27.50;97.90
38848;DHT22;24602;44.780;20.408;2022-09-09T18:17:34;27.40;98.20
38848;DHT22;24602;44.780;20.408;2022-09-09T18:20:05;27.40;98.50
38848;DHT22;24602;44.780;20.408;2022-09-09T18:22:36;27.40;98.60
38848;DHT22;24602;44.780;20.408;2022-09-09T18:25:06;27.40;98.70
38848;DHT22;24602;44.780;20.408;2022-09-09T18:27:34;27.30;98.90